createdAt,value
2023-04-04T00:00:11.806Z,-1.8
2023-04-04T00:03:12.716Z,-1.8
2023-04-04T00:06:11.973Z,-1.8
2023-04-04T00:09:11.711Z,-1.8
2023-04-04T00:12:11.786Z,-1.9
2023-04-04T00:15:11.754Z,-1.9
2023-04-04T00:18:11.952Z,-1.9
2023-04-04T00:21:11.753Z,-2
2023-04-04T00:24:11.709Z,-2
2023-04-04T00:27:11.634Z,-2
2023-04-04T00:30:11.759Z,-1.9
2023-04-04T00:33:12.348Z,-1.9
2023-04-04T00:36:12.080Z,-1.9
2023-04-04T00:39:11.634Z,-1.9
2023-04-04T00:42:11.750Z,-1.9
2023-04-04T00:45:11.689Z,-1.9
2023-04-04T00:48:11.944Z,-1.9
2023-04-04T00:51:11.674Z,-2
2023-04-04T00:54:11.697Z,-2.1
2023-04-04T00:57:11.687Z,-2.1
2023-04-04T01:00:11.881Z,-2.3
2023-04-04T01:03:12.044Z,-2.3
2023-04-04T01:06:11.674Z,-2.3
2023-04-04T01:09:11.644Z,-2.3
2023-04-04T01:12:11.680Z,-2.3
2023-04-04T01:15:11.882Z,-2.3
2023-04-04T01:18:12.050Z,-2.3
2023-04-04T01:21:11.681Z,-2.4
2023-04-04T01:24:11.651Z,-2.4
2023-04-04T01:27:11.698Z,-2.4
2023-04-04T01:30:11.904Z,-2.5
2023-04-04T01:33:11.873Z,-2.6
2023-04-04T01:36:12.882Z,-2.6
2023-04-04T01:39:11.693Z,-2.6
2023-04-04T01:42:11.649Z,-2.6
2023-04-04T01:45:11.703Z,-2.6
2023-04-04T01:48:11.972Z,-2.8
2023-04-04T01:51:11.706Z,-2.8
2023-04-04T01:54:11.731Z,-2.8
2023-04-04T01:57:11.748Z,-2.8
2023-04-04T02:00:11.752Z,-2.9
2023-04-04T02:03:11.972Z,-2.9
2023-04-04T02:06:11.685Z,-2.9
2023-04-04T02:09:11.740Z,-2.9
2023-04-04T02:12:11.787Z,-2.9
2023-04-04T02:15:11.712Z,-2.9
2023-04-04T02:18:13.567Z,-2.9
2023-04-04T02:21:11.693Z,-3
2023-04-04T02:24:11.928Z,-3
2023-04-04T02:27:11.676Z,-3.1
2023-04-04T02:30:11.756Z,-3.1
2023-04-04T02:33:12.045Z,-3.3
2023-04-04T02:36:12.072Z,-3.3
2023-04-04T02:39:12.033Z,-3.4
2023-04-04T02:42:11.694Z,-3.4
2023-04-04T02:45:11.681Z,-3.4
2023-04-04T02:48:12.330Z,-3.5
2023-04-04T02:51:11.724Z,-3.5
2023-04-04T02:54:11.746Z,-3.6
2023-04-04T02:57:11.696Z,-3.6
2023-04-04T03:00:11.715Z,-3.6
2023-04-04T03:03:13.082Z,-3.6
2023-04-04T03:06:11.757Z,-3.6
2023-04-04T03:09:11.754Z,-3.8
2023-04-04T03:12:11.718Z,-3.6
2023-04-04T03:15:11.644Z,-3.6
2023-04-04T03:18:11.960Z,-3.6
2023-04-04T03:21:11.693Z,-3.6
2023-04-04T03:24:11.670Z,-3.8
2023-04-04T03:27:11.685Z,-3.6
2023-04-04T03:30:11.800Z,-3.6
2023-04-04T03:33:11.768Z,-3.6
2023-04-04T03:36:12.072Z,-3.8
2023-04-04T03:39:11.693Z,-3.8
2023-04-04T03:42:11.694Z,-3.8
2023-04-04T03:45:11.840Z,-3.9
2023-04-04T03:48:11.896Z,-3.9
2023-04-04T03:51:12.468Z,-3.9
2023-04-04T03:54:11.667Z,-3.9
2023-04-04T03:57:11.667Z,-3.9
2023-04-04T04:00:12.008Z,-3.9
2023-04-04T04:03:13.609Z,-3.9
2023-04-04T04:06:11.659Z,-3.9
2023-04-04T04:09:11.673Z,-3.9
2023-04-04T04:12:11.682Z,-4
2023-04-04T04:15:11.829Z,-4
2023-04-04T04:18:11.887Z,-4
2023-04-04T04:21:11.706Z,-4
2023-04-04T04:24:11.653Z,-4
2023-04-04T04:27:11.756Z,-4
2023-04-04T04:30:11.754Z,-3.9
2023-04-04T04:33:11.965Z,-3.9
2023-04-04T04:36:13.272Z,-3.9
2023-04-04T04:39:11.794Z,-3.8
2023-04-04T04:42:11.665Z,-3.8
2023-04-04T04:45:12.202Z,-3.6
2023-04-04T04:48:12.162Z,-3.6
2023-04-04T04:51:11.753Z,-3.4
2023-04-04T04:54:11.681Z,-3.3
2023-04-04T04:57:11.748Z,-3.1
2023-04-04T05:00:11.863Z,-3
2023-04-04T05:03:12.242Z,-2.8
2023-04-04T05:06:11.709Z,-2.4
2023-04-04T05:09:11.722Z,-2.1
2023-04-04T05:12:11.709Z,-1.9
2023-04-04T05:15:11.803Z,-1.6
2023-04-04T05:18:12.052Z,-1.4
2023-04-04T05:21:11.740Z,-0.5
2023-04-04T05:24:11.755Z,-0.1
2023-04-04T05:27:11.704Z,-0.1
2023-04-04T05:30:11.945Z,0.1
2023-04-04T05:33:12.198Z,0.4
2023-04-04T05:36:12.191Z,-0.9
2023-04-04T05:39:11.709Z,0.4
2023-04-04T05:42:11.829Z,1.1
2023-04-04T05:45:11.771Z,1.6
2023-04-04T05:48:11.883Z,2
2023-04-04T05:51:13.449Z,2
2023-04-04T05:54:11.794Z,1.9
2023-04-04T05:57:11.780Z,1.9
2023-04-04T06:00:11.976Z,2.1
2023-04-04T06:03:12.697Z,2.4
2023-04-04T06:06:12.255Z,2.7
2023-04-04T06:09:14.722Z,3.2
2023-04-04T06:12:11.799Z,3.9
2023-04-04T06:15:11.971Z,4.2
2023-04-04T06:18:12.137Z,4.7
2023-04-04T06:21:11.723Z,5.2
2023-04-04T06:24:11.875Z,5.6
2023-04-04T06:27:11.829Z,6
2023-04-04T06:30:14.221Z,6.9
2023-04-04T06:33:11.918Z,8.3
2023-04-04T06:36:11.955Z,10
2023-04-04T06:39:11.760Z,11.4
2023-04-04T06:42:11.834Z,12.1
2023-04-04T06:45:11.876Z,13.1
2023-04-04T06:48:12.143Z,14.5
2023-04-04T06:51:11.752Z,16.1
2023-04-04T06:54:11.792Z,17.1
2023-04-04T06:57:11.726Z,18.4
2023-04-04T07:00:12.212Z,19.8
2023-04-04T07:03:12.306Z,20.9
2023-04-04T07:06:11.999Z,21.6
2023-04-04T07:09:31.916Z,22
2023-04-04T07:12:11.810Z,23.1
2023-04-04T07:15:11.739Z,24.1
2023-04-04T07:18:12.354Z,24.7
2023-04-04T07:21:11.795Z,25.1
2023-04-04T07:24:11.713Z,25.4
2023-04-04T07:27:11.752Z,25.9
2023-04-04T07:30:11.837Z,26.6
2023-04-04T07:33:12.139Z,26.9
2023-04-04T07:36:12.234Z,27.2
2023-04-04T07:39:11.676Z,28
2023-04-04T07:42:11.721Z,28.5
2023-04-04T07:45:11.839Z,28.9
2023-04-04T07:48:12.156Z,29.1
2023-04-04T07:51:11.776Z,29.5
2023-04-04T07:54:11.784Z,29.8
2023-04-04T07:57:12.791Z,30.1
2023-04-04T08:00:11.940Z,30
2023-04-04T08:03:12.554Z,30
2023-04-04T08:06:11.767Z,30.1
2023-04-04T08:09:11.794Z,30.5
2023-04-04T08:12:11.766Z,30.8
2023-04-04T08:15:11.728Z,30.5
2023-04-04T08:18:12.314Z,30.6
2023-04-04T08:21:11.715Z,31
2023-04-04T08:24:11.772Z,31.5
2023-04-04T08:27:17.087Z,32
2023-04-04T08:30:11.833Z,32.4
2023-04-04T08:33:15.115Z,32.6
2023-04-04T08:36:12.107Z,32.7
2023-04-04T08:39:11.797Z,33.1
2023-04-04T08:42:11.915Z,33.1
2023-04-04T08:45:11.861Z,33.7
2023-04-04T08:48:12.040Z,34.5
2023-04-04T08:51:11.825Z,35
2023-04-04T08:54:11.841Z,35.5
2023-04-04T08:57:11.730Z,35.2
2023-04-04T09:00:13.246Z,35.7
2023-04-04T09:03:12.895Z,36.1
2023-04-04T09:06:11.733Z,36
2023-04-04T09:09:12.176Z,36.4
2023-04-04T09:12:12.147Z,36.6
2023-04-04T09:15:12.050Z,36.5
2023-04-04T09:18:12.085Z,36
2023-04-04T09:21:11.843Z,35.2
2023-04-04T09:24:12.045Z,34.5
2023-04-04T09:27:11.741Z,34.4
2023-04-04T09:30:15.644Z,33.9
2023-04-04T09:33:12.156Z,32.2
2023-04-04T09:36:12.334Z,28.1
2023-04-04T09:39:12.461Z,28.7
2023-04-04T09:42:11.778Z,27.6
2023-04-04T09:45:19.589Z,23.1
2023-04-04T09:48:12.158Z,21.6
2023-04-04T09:51:11.974Z,25.8
2023-04-04T09:54:31.231Z,27.5
2023-04-04T09:57:11.729Z,25.3
2023-04-04T10:00:12.044Z,28.1
2023-04-04T10:03:11.899Z,30.5
2023-04-04T10:06:15.510Z,32.1
2023-04-04T10:09:11.734Z,33.5
2023-04-04T10:12:11.796Z,31.1
2023-04-04T10:15:11.946Z,28
2023-04-04T10:18:12.118Z,28.1
2023-04-04T10:21:24.708Z,31.1
2023-04-04T10:24:12.007Z,33
2023-04-04T10:27:11.715Z,34.2
2023-04-04T10:30:12.174Z,35.4
2023-04-04T10:33:12.069Z,36.2
2023-04-04T10:36:12.280Z,37.4
2023-04-04T10:39:11.908Z,38.4
2023-04-04T10:42:11.945Z,38.2
2023-04-04T10:45:31.278Z,38.4
2023-04-04T10:48:15.145Z,39
2023-04-04T10:51:11.710Z,39.1
2023-04-04T10:54:11.862Z,39.1
2023-04-04T10:57:12.049Z,35.2
2023-04-04T11:00:12.398Z,31.6
2023-04-04T11:03:12.194Z,26.9
2023-04-04T11:06:11.675Z,23.6
2023-04-04T11:09:11.767Z,21.5
2023-04-04T11:12:11.782Z,21.9
2023-04-04T11:15:11.828Z,22.6
2023-04-04T11:18:38.722Z,22
2023-04-04T11:21:11.845Z,26.5
2023-04-04T11:24:11.731Z,29.4
2023-04-04T11:27:11.749Z,29.6
2023-04-04T11:30:13.522Z,30.4
2023-04-04T11:36:14.848Z,27.4
2023-04-04T11:39:11.760Z,27.8
2023-04-04T11:42:11.844Z,29.5
2023-04-04T11:45:11.808Z,31.6
2023-04-04T11:48:11.860Z,32.2
2023-04-04T11:51:11.862Z,27.1
2023-04-04T11:54:11.706Z,24.1
2023-04-04T11:57:11.934Z,22
2023-04-04T12:00:11.937Z,20.9
2023-04-04T12:03:12.592Z,22.2
2023-04-04T12:06:12.366Z,27
2023-04-04T12:09:11.830Z,30.5
2023-04-04T12:12:11.756Z,32.6
2023-04-04T12:15:28.647Z,34.1
2023-04-04T12:18:12.237Z,34.7
2023-04-04T12:21:11.699Z,33
2023-04-04T12:24:11.686Z,31.2
2023-04-04T12:27:11.748Z,30.8
2023-04-04T12:30:11.843Z,30.9
2023-04-04T12:33:11.951Z,29.6
2023-04-04T12:36:12.067Z,30
2023-04-04T12:39:11.690Z,28.4
2023-04-04T12:42:11.820Z,28.3
2023-04-04T12:45:11.826Z,31
2023-04-04T12:48:12.296Z,31.4
2023-04-04T12:51:11.743Z,32.5
2023-04-04T12:54:11.898Z,33.6
2023-04-04T12:57:11.726Z,33.7
2023-04-04T13:00:12.041Z,33.4
2023-04-04T13:03:12.069Z,33.5
2023-04-04T13:06:12.162Z,33.5
2023-04-04T13:09:11.772Z,33.4
2023-04-04T13:12:11.696Z,33.5
2023-04-04T13:15:11.902Z,34.2
2023-04-04T13:18:12.258Z,35.5
2023-04-04T13:21:11.783Z,36.2
2023-04-04T13:24:11.981Z,36.5
2023-04-04T13:27:11.771Z,36.9
2023-04-04T13:30:14.507Z,34.5
2023-04-04T13:33:12.366Z,31.1
2023-04-04T13:36:11.849Z,28.1
2023-04-04T13:39:11.724Z,26.8
2023-04-04T13:42:11.780Z,25.1
2023-04-04T13:45:11.749Z,24.3
2023-04-04T13:48:12.127Z,25.1
2023-04-04T13:51:11.775Z,27.1
2023-04-04T13:54:11.789Z,30
2023-04-04T13:57:11.784Z,30
2023-04-04T14:00:11.841Z,29
2023-04-04T14:03:12.081Z,28.9
2023-04-04T14:06:21.914Z,28.9
2023-04-04T14:09:11.757Z,29.1
2023-04-04T14:15:11.799Z,28.9
2023-04-04T14:18:12.053Z,30.1
2023-04-04T14:21:11.974Z,32.2
2023-04-04T14:24:11.815Z,31.5
2023-04-04T14:27:11.800Z,31
2023-04-04T14:30:11.709Z,31.4
2023-04-04T14:33:12.360Z,30.4
2023-04-04T14:36:11.712Z,30.8
2023-04-04T14:39:11.896Z,30.6
2023-04-04T14:42:11.690Z,30.6
2023-04-04T14:45:11.773Z,31.1
2023-04-04T14:48:12.167Z,31.8
2023-04-04T14:51:11.699Z,32
2023-04-04T14:54:11.873Z,32.2
2023-04-04T14:57:11.761Z,31.8
2023-04-04T15:00:11.954Z,31.9
2023-04-04T15:03:14.497Z,32.2
2023-04-04T15:06:11.803Z,32.1
2023-04-04T15:09:13.437Z,31.1
2023-04-04T15:12:11.807Z,26.8
2023-04-04T15:15:11.781Z,27.6
2023-04-04T15:18:12.158Z,28.5
2023-04-04T15:21:11.767Z,28.4
2023-04-04T15:24:11.886Z,28.5
2023-04-04T15:27:11.723Z,28.3
2023-04-04T15:30:11.862Z,27.1
2023-04-04T15:33:12.156Z,25.8
2023-04-04T15:36:11.744Z,25.8
2023-04-04T15:39:11.914Z,26.5
2023-04-04T15:42:11.704Z,27.6
2023-04-04T15:45:11.823Z,28
2023-04-04T15:48:12.129Z,27.9
2023-04-04T15:51:11.772Z,27.1
2023-04-04T15:54:11.703Z,26.1
2023-04-04T15:57:11.716Z,24.1
2023-04-04T16:00:11.894Z,21.2
2023-04-04T16:03:12.393Z,21.6
2023-04-04T16:06:11.733Z,22.4
2023-04-04T16:09:11.769Z,22.9
2023-04-04T16:12:11.701Z,23.1
2023-04-04T16:15:12.153Z,23.3
2023-04-04T16:18:12.214Z,23.5
2023-04-04T16:21:11.702Z,23.5
2023-04-04T16:24:11.850Z,23.5
2023-04-04T16:27:11.784Z,23.4
2023-04-04T16:30:11.790Z,22.8
2023-04-04T16:33:12.181Z,20.9
2023-04-04T16:36:11.740Z,17.5
2023-04-04T16:39:11.786Z,15.9
2023-04-04T16:42:11.793Z,15.4
2023-04-04T16:45:11.823Z,16.9
2023-04-04T16:48:12.035Z,16.3
2023-04-04T16:51:11.728Z,13.8
2023-04-04T16:54:11.770Z,12.1
2023-04-04T16:57:11.754Z,10.8
2023-04-04T17:00:11.730Z,9.8
2023-04-04T17:03:11.985Z,9
2023-04-04T17:06:11.865Z,8.4
2023-04-04T17:09:11.724Z,7.9
2023-04-04T17:12:11.788Z,7.4
2023-04-04T17:15:11.960Z,7
2023-04-04T17:18:12.117Z,6.7
2023-04-04T17:21:11.866Z,6.5
2023-04-04T17:24:12.197Z,6.2
2023-04-04T17:27:11.698Z,6
2023-04-04T17:30:11.819Z,5.7
2023-04-04T17:33:12.102Z,5.5
2023-04-04T17:36:11.716Z,5.2
2023-04-04T17:39:11.760Z,5.1
2023-04-04T17:42:11.719Z,4.9
2023-04-04T17:45:11.949Z,4.7
2023-04-04T17:48:12.383Z,4.6
2023-04-04T17:51:14.746Z,4.5
2023-04-04T17:54:11.775Z,4.4
2023-04-04T17:57:11.763Z,4.4
2023-04-04T18:00:11.752Z,4.4
2023-04-04T18:03:12.628Z,4.2
2023-04-04T18:06:11.710Z,4.1
2023-04-04T18:09:11.726Z,4.1
2023-04-04T18:12:12.034Z,4.1
2023-04-04T18:15:12.074Z,4.1
2023-04-04T18:18:12.219Z,4.1
2023-04-04T18:21:11.662Z,4.1
2023-04-04T18:24:11.785Z,4.1
2023-04-04T18:27:11.721Z,4.1
2023-04-04T18:30:11.684Z,4.2
2023-04-04T18:33:12.024Z,4.2
2023-04-04T18:36:11.897Z,4.2
2023-04-04T18:39:11.719Z,4.2
2023-04-04T18:42:11.811Z,4.2
2023-04-04T18:45:11.726Z,4.1
2023-04-04T18:48:12.018Z,4.1
2023-04-04T18:51:11.688Z,4.1
2023-04-04T18:54:11.738Z,4
2023-04-04T18:57:11.671Z,4
2023-04-04T19:00:11.817Z,4
2023-04-04T19:03:14.098Z,3.9
2023-04-04T19:06:11.716Z,3.9
2023-04-04T19:09:11.673Z,3.7
2023-04-04T19:12:14.364Z,3.7
2023-04-04T19:15:11.649Z,3.6
2023-04-04T19:18:12.203Z,3.5
2023-04-04T19:21:13.771Z,3.5
2023-04-04T19:24:11.761Z,3.4
2023-04-04T19:27:11.771Z,3.4
2023-04-04T19:30:11.731Z,3.2
2023-04-04T19:33:12.168Z,3
2023-04-04T19:36:12.227Z,2.9
2023-04-04T19:39:11.766Z,2.7
2023-04-04T19:42:11.773Z,2.6
2023-04-04T19:45:11.900Z,2.4
2023-04-04T19:48:11.918Z,2.2
2023-04-04T19:51:11.662Z,2
2023-04-04T19:54:11.656Z,1.9
2023-04-04T19:57:11.722Z,1.6
2023-04-04T20:00:11.801Z,1.5
2023-04-04T20:03:12.309Z,1.3
2023-04-04T20:06:11.669Z,1.1
2023-04-04T20:09:11.667Z,0.9
2023-04-04T20:12:11.698Z,0.8
2023-04-04T20:15:11.855Z,0.6
2023-04-04T20:18:12.005Z,0.5
2023-04-04T20:21:12.493Z,0.3
2023-04-04T20:24:11.712Z,0.1
2023-04-04T20:27:11.660Z,0
2023-04-04T20:30:11.967Z,-0.1
2023-04-04T20:33:11.950Z,-0.3
2023-04-04T20:36:11.941Z,-0.4
2023-04-04T20:39:11.680Z,-0.5
2023-04-04T20:42:11.711Z,-0.5
2023-04-04T20:45:12.019Z,-0.6
2023-04-04T20:48:14.799Z,-0.8
2023-04-04T20:51:11.689Z,-0.9
2023-04-04T20:54:11.732Z,-1
2023-04-04T20:57:11.689Z,-1
2023-04-04T21:00:11.793Z,-1.1
2023-04-04T21:03:12.034Z,-1.3
2023-04-04T21:06:11.665Z,-1.4
2023-04-04T21:09:11.702Z,-1.5
2023-04-04T21:12:11.707Z,-1.5
2023-04-04T21:15:11.697Z,0.4
2023-04-04T21:18:11.813Z,0.2
2023-04-04T21:21:11.699Z,0.2
2023-04-04T21:24:11.696Z,0.1
2023-04-04T21:27:11.709Z,0.1
2023-04-04T21:30:12.030Z,0.1
2023-04-04T21:33:11.877Z,0.1
2023-04-04T21:36:11.976Z,0.1
2023-04-04T21:39:11.693Z,0.1
2023-04-04T21:42:15.702Z,0
2023-04-04T21:45:11.717Z,0
2023-04-04T21:48:11.918Z,0
2023-04-04T21:51:11.703Z,0
2023-04-04T21:54:11.714Z,-0.1
2023-04-04T21:57:11.649Z,-0.3
2023-04-04T22:00:13.080Z,-0.3
2023-04-04T22:03:11.889Z,-0.3
2023-04-04T22:06:11.686Z,-0.3
2023-04-04T22:09:11.683Z,-0.3
2023-04-04T22:12:11.746Z,-0.3
2023-04-04T22:15:12.007Z,-0.4
2023-04-04T22:18:11.984Z,-0.4
2023-04-04T22:21:11.699Z,-0.5
2023-04-04T22:24:12.655Z,-0.5
2023-04-04T22:27:11.643Z,-0.6
2023-04-04T22:30:11.711Z,-0.8
2023-04-04T22:33:11.923Z,-0.8
2023-04-04T22:36:11.906Z,-0.8
2023-04-04T22:39:11.731Z,-0.8
2023-04-04T22:42:11.763Z,-0.9
2023-04-04T22:45:11.711Z,-0.9
2023-04-04T22:48:11.838Z,-0.9
2023-04-04T22:51:11.734Z,-1
2023-04-04T22:54:11.956Z,-1
2023-04-04T22:57:11.956Z,-1.1
2023-04-04T23:00:11.737Z,-1.1
2023-04-04T23:03:11.912Z,-1.1
2023-04-04T23:06:11.691Z,-1.3
2023-04-04T23:09:14.095Z,-1.3
2023-04-04T23:12:11.633Z,-1.3
2023-04-04T23:15:11.664Z,-1.1
2023-04-04T23:18:12.013Z,-1.3
2023-04-04T23:21:11.766Z,-1.3
2023-04-04T23:24:11.732Z,-1.3
2023-04-04T23:27:11.735Z,-1.4
2023-04-04T23:30:11.783Z,-1.4
2023-04-04T23:33:12.037Z,-1.5
2023-04-04T23:36:12.205Z,-1.5
2023-04-04T23:39:11.722Z,-1.6
2023-04-04T23:42:11.742Z,-1.6
2023-04-04T23:45:11.712Z,-1.8
2023-04-04T23:48:12.035Z,-1.8
2023-04-04T23:51:11.638Z,-1.8
2023-04-04T23:54:11.710Z,-1.6
2023-04-04T23:57:11.769Z,-1.6
